Latest Weather Observations for Braidwood

IDN60801

Issued at 6:04 am EST Saturday 25 June 2016 (issued every 30 minutes, with the page automatically refreshed every 10 minutes)

About weather observations | Map of weather stations | Latest weather observations for NSW | Other Formats
Station Details ID: 069132 Name: BRAIDWOOD RACECOURSE AWS Lat: -35.43 Lon: 149.78 Height: 665.2 m
Data from the previous 72 hours. | See also: Recent months at Braidwood
Date/Time
EST
Temp
°C
App
Temp
°C
Dew
Point
°C
Rel
Hum
%
Delta-T
°C
Wind Press
QNH
hPa
Press
MSL
hPa
Rain since
9am
mm
Dir  Spd
km/h
Gust
km/h
Spd
kts
Gust
kts
25/06:00am 0.1 -3.6 -4.3 72 1.5 W 6 7 3 4 1015.5 1016.3 0.0
25/05:30am -0.2 -5.8 -2.7 83 0.9 WNW 17 20 9 11 1015.1 1015.9 0.0
25/05:00am -0.1 -5.4 -3.3 79 1.1 WNW 15 19 8 10 1014.6 1015.4 0.0
25/04:30am 0.8 -3.3 -3.1 75 1.4 NW 9 11 5 6 1014.3 1015.0 0.0
25/04:00am -0.2 -3.4 -3.1 81 1.0 N 4 9 2 5 1013.9 1014.7 0.0
25/03:30am 0.3 -3.7 -2.6 81 1.0 NW 9 17 5 9 1013.4 1014.2 0.0
25/03:00am 0.1 -3.6 -2.8 81 1.0 NNW 7 11 4 6 1013.1 1013.8 0.0
25/02:30am 1.3 -3.9 -2.8 74 1.5 WNW 15 20 8 11 1012.8 1013.5 0.0
25/02:00am -0.7 -3.9 -3.4 82 0.9 NNW 4 6 2 3 1012.6 1013.3 0.0
25/01:30am 0.3 -2.9 -3.2 77 1.2 NNW 4 6 2 3 1012.3 1013.1 0.0
25/01:00am 0.6 -4.2 -2.4 80 1.1 NW 13 17 7 9 1011.7 1012.4 0.0
25/12:30am 0.0 -3.1 -2.9 81 1.0 NNW 4 7 2 4 1011.7 1012.4 0.0
25/12:00am 1.4 -2.7 -3.3 71 1.7 NW 9 13 5 7 1011.3 1012.0 0.0
 
Date/Time
EST
Temp
°C
App
Temp
°C
Dew
Point
°C
Rel
Hum
%
Delta-T
°C
Wind Press
QNH
hPa
Press
MSL
hPa
Rain since
9am
mm
Dir  Spd
km/h
Gust
km/h
Spd
kts
Gust
kts
24/11:30pm 1.4 -1.8 -3.7 69 1.9 WNW 4 7 2 4 1011.0 1011.7 0.0
24/11:00pm 2.3 -1.3 -3.4 66 2.0 W 6 11 3 6 1010.5 1011.2 0.0
24/10:30pm 2.6 -1.8 -2.7 68 1.9 W 11 17 6 9 1010.4 1011.1 0.0
24/10:00pm 1.8 -2.3 -2.9 71 1.7 WNW 9 15 5 8 1010.2 1010.9 0.0
24/09:30pm 2.5 -2.3 -2.4 70 1.8 W 13 19 7 10 1009.8 1010.5 0.0
24/09:00pm 2.1 -2.7 -2.2 73 1.6 W 13 19 7 10 1009.1 1009.8 0.0
24/08:30pm 2.3 -2.0 -1.8 74 1.5 WNW 11 17 6 9 1008.7 1009.4 0.0
24/08:00pm 2.6 -2.5 -1.6 74 1.6 WNW 15 20 8 11 1008.2 1008.8 0.0
24/07:30pm 2.8 -3.6 -1.4 74 1.6 WNW 22 30 12 16 1007.4 1008.1 0.0
24/07:00pm 2.7 -1.9 -1.1 76 1.4 WNW 13 17 7 9 1007.0 1007.7 0.0
24/06:30pm 2.9 -2.4 -0.9 76 1.4 WNW 17 24 9 13 1006.4 1007.0 0.0
24/06:00pm 3.0 -2.3 -0.5 78 1.4 WNW 17 22 9 12 1005.6 1006.2 0.0
24/05:30pm 3.5 0.1 -0.9 73 1.7 NW 7 13 4 7 1005.1 1005.7 0.0
24/05:00pm 4.4 1.1 -1.0 68 2.1 NNW 6 13 3 7 1004.3 1004.9 0.0
24/04:30pm 5.3 1.0 -1.4 62 2.6 WNW 11 24 6 13 1003.8 1004.4 0.0
24/04:00pm 5.8 -1.4 -1.8 58 2.9 WNW 26 35 14 19 1002.7 1003.3 0.0
24/03:30pm 5.8 -1.3 -1.6 59 2.9 WNW 26 41 14 22 1002.2 1002.8 0.0
24/03:00pm 6.4 1.4 -1.5 57 3.1 W 15 24 8 13 1002.5 1003.1 0.0
24/02:30pm 7.5 2.9 -1.4 53 3.5 WSW 13 26 7 14 1001.8 1002.3 0.0
24/02:00pm 7.3 1.3 -1.4 54 3.5 WNW 20 39 11 21 1001.0 1001.6 0.0
24/01:30pm 7.6 -0.7 -1.4 53 3.6 WNW 32 52 17 28 1000.6 1001.2 0.0
24/01:06pm 7.5 0.1 -0.9 55 3.4 WNW 28 52 15 28 1000.7 1001.3 0.0
24/01:00pm 7.7 -0.5 -0.8 55 3.4 WNW 32 46 17 25 1000.8 1001.4 0.0
24/12:30pm 7.0 -1.6 0.5 63 2.7 WNW 35 54 19 29 1001.4 1001.9 0.0
24/12:22pm 7.0 -0.2 0.7 64 2.6 WNW 28 54 15 29 1001.6 1002.1 0.0
24/12:00pm 6.8 0.3 0.0 62 2.8 WNW 24 39 13 21 1001.9 1002.5 0.0
24/11:45am 7.3 -0.5 1.4 66 2.5 WNW 32 52 17 28 1002.2 1002.8 0.0
24/11:30am 7.0 -1.1 0.9 65 2.5 WNW 33 48 18 26 1002.3 1002.9 0.0
24/11:00am 6.9 -1.2 1.2 67 2.4 WNW 33 48 18 26 1002.5 1003.1 0.0
24/10:57am 6.4 -0.8 0.5 66 2.4 WNW 28 48 15 26 1002.5 1003.1 0.0
24/10:30am 6.2 -1.9 0.9 69 2.2 WNW 33 46 18 25 1002.4 1003.0 0.0
24/10:00am 6.7 -1.3 1.6 70 2.2 NW 33 57 18 31 1001.9 1002.5 0.0
24/09:47am 6.4 -1.1 0.9 68 2.3 NW 30 50 16 27 1001.7 1002.2 0.0
24/09:30am 6.1 -0.6 1.2 71 2.0 NW 26 44 14 24 1001.9 1002.5 0.0
24/09:00am 6.3 0.9 1.4 71 2.1 NW 19 28 10 15 1002.3 1002.9 0.2
24/08:30am 5.9 1.6 1.2 72 1.9 NW 13 22 7 12 1002.4 1003.0 0.2
24/08:00am 5.5 1.3 1.4 75 1.7 NW 13 22 7 12 1001.9 1002.5 0.2
24/07:30am 5.2 1.0 1.9 79 1.4 NW 13 22 7 12 1001.5 1002.0 0.2
24/07:00am 5.3 0.8 2.1 80 1.4 NW 15 22 8 12 1000.8 1001.4 0.2
24/06:30am 5.7 0.9 2.7 81 1.3 NW 17 30 9 16 1000.7 1001.3 0.2
24/06:00am 6.0 0.9 3.3 83 1.2 NW 19 26 10 14 1000.5 1001.0 0.2
24/05:30am 7.0 0.7 3.8 80 1.4 NW 26 37 14 20 1000.4 1000.9 0.0
24/05:00am 6.6 0.4 4.4 86 1.0 NW 26 44 14 24 1000.1 1000.6 0.0
24/04:30am 7.2 -0.2 3.8 79 1.5 NW 32 48 17 26 999.6 1000.2 0.0
24/04:00am 7.7 0.1 3.7 76 1.8 NW 33 52 18 28 999.5 1000.1 0.0
24/03:32am 7.8 -0.3 3.3 73 2.0 NW 35 57 19 31 999.5 1000.1 0.0
24/03:30am 7.8 -0.3 3.3 73 2.0 NW 35 54 19 29 999.5 1000.1 0.0
24/03:02am 8.1 -0.3 3.6 73 2.0 NW 37 61 20 33 999.3 999.9 0.0
24/03:00am 8.0 -0.4 3.5 73 2.0 NW 37 54 20 29 999.4 1000.0 0.0
24/02:30am 8.2 0.2 3.7 73 2.0 NW 35 56 19 30 999.9 1000.4 0.0
24/02:00am 8.5 -0.4 3.1 69 2.4 WNW 39 59 21 32 999.6 1000.2 0.0
24/01:30am 8.5 -1.1 3.6 71 2.2 WNW 43 61 23 33 999.5 1000.1 0.0
24/01:00am 8.7 0.1 4.5 75 1.9 NW 39 57 21 31 999.8 1000.3 0.0
24/12:35am 8.8 0.9 4.4 74 2.0 NW 35 63 19 34 999.6 1000.2 0.0
24/12:30am 8.9 1.4 4.5 74 2.0 NW 33 48 18 26 999.6 1000.2 0.0
24/12:09am 9.2 2.8 5.2 76 1.9 NW 28 48 15 26 1000.4 1000.9 0.0
24/12:00am 9.2 3.4 6.3 82 1.4 NW 26 44 14 24 1000.4 1000.9 0.0
 
Date/Time
EST
Temp
°C
App
Temp
°C
Dew
Point
°C
Rel
Hum
%
Delta-T
°C
Wind Press
QNH
hPa
Press
MSL
hPa
Rain since
9am
mm
Dir  Spd
km/h
Gust
km/h
Spd
kts
Gust
kts
23/11:30pm 9.6 4.9 6.0 78 1.7 NW 20 35 11 19 1000.7 1001.3 0.0
23/11:00pm 9.3 4.9 6.6 83 1.3 NNW 19 37 10 20 1000.7 1001.3 0.0
23/10:30pm 9.2 4.7 6.3 82 1.4 NNW 19 32 10 17 1001.2 1001.8 0.0
23/10:00pm 9.1 4.6 6.2 82 1.4 NNW 19 33 10 18 1001.6 1002.1 0.0
23/09:30pm 8.8 4.3 6.1 83 1.3 NNW 19 32 10 17 1001.9 1002.5 0.0
23/09:00pm 8.6 4.4 5.7 82 1.4 NNW 17 37 9 20 1002.1 1002.7 0.0
23/08:30pm 8.1 4.2 5.4 83 1.3 NNW 15 32 8 17 1002.7 1003.3 0.0
23/08:00pm 7.9 3.5 4.7 80 1.5 NNW 17 28 9 15 1003.1 1003.6 0.0
23/07:30pm 7.8 3.0 4.7 81 1.4 NNW 19 32 10 17 1003.3 1003.9 0.0
23/07:00pm 7.7 3.4 5.2 84 1.2 NW 17 26 9 14 1003.5 1004.1 0.0
23/06:30pm 7.7 3.0 5.3 85 1.1 NW 19 28 10 15 1003.8 1004.4 0.0
23/06:00pm 7.9 2.2 5.0 82 1.3 NW 24 39 13 21 1003.8 1004.4 0.0
23/05:30pm 7.8 1.7 4.7 81 1.4 NW 26 41 14 22 1003.9 1004.5 0.0
23/05:00pm 7.8 1.3 4.6 80 1.5 NW 28 46 15 25 1004.1 1004.7 0.0
23/04:54pm 7.9 1.4 4.7 80 1.5 NW 28 46 15 25 1004.1 1004.7 0.0
23/04:30pm 8.0 0.6 4.2 77 1.7 NW 32 48 17 26 1004.0 1004.6 0.0
23/04:17pm 8.1 1.4 3.8 74 1.9 NW 28 48 15 26 1004.2 1004.8 0.0
23/04:00pm 8.7 3.1 3.5 70 2.3 NW 22 39 12 21 1004.4 1005.1 0.0
23/03:30pm 8.8 2.1 3.4 69 2.4 NW 28 41 15 22 1004.9 1005.5 0.0
23/03:00pm 9.1 3.4 2.9 65 2.8 NW 22 39 12 21 1005.3 1005.9 0.0
23/02:30pm 10.3 3.3 1.9 56 3.7 NW 28 48 15 26 1005.4 1006.0 0.0
23/02:00pm 10.0 3.2 3.1 62 3.1 NW 28 46 15 25 1005.9 1006.6 0.0
23/01:58pm 9.9 3.0 2.5 60 3.3 NW 28 46 15 25 1005.8 1006.5 0.0
23/01:30pm 9.1 2.2 2.4 63 2.9 NW 28 41 15 22 1006.4 1007.0 0.0
23/01:02pm 9.0 1.4 3.0 66 2.7 NW 32 52 17 28 1006.9 1007.5 0.0
23/01:00pm 8.9 1.1 3.1 67 2.6 NW 33 52 18 28 1006.9 1007.5 0.0
23/12:30pm 8.9 2.0 2.5 64 2.8 NW 28 52 15 28 1007.4 1008.1 0.0
23/12:22pm 8.8 1.8 1.9 62 3.0 NW 28 52 15 28 1007.5 1008.2 0.0
23/12:00pm 8.7 2.1 2.3 64 2.8 NW 26 48 14 26 1008.3 1009.0 0.0
23/11:57am 8.6 1.6 1.7 62 3.0 NW 28 48 15 26 1008.3 1009.0 0.0
23/11:30am 8.3 3.1 3.4 71 2.2 NW 20 35 11 19 1009.1 1009.8 0.0
23/11:00am 7.8 4.0 3.8 76 1.8 NNW 13 28 7 15 1009.5 1010.1 0.0
23/10:30am 7.5 3.2 3.4 75 1.8 NNW 15 26 8 14 1009.9 1010.6 0.0
23/10:00am 7.2 2.5 3.3 76 1.7 NW 17 28 9 15 1010.1 1010.8 0.0
23/09:30am 6.9 2.5 2.8 75 1.8 NW 15 28 8 15 1010.1 1010.8 0.0
23/09:00am 6.4 2.8 3.0 79 1.5 NNW 11 20 6 11 1010.3 1011.0 0.0
23/08:30am 5.6 2.8 3.1 84 1.1 NNW 7 15 4 8 1010.5 1011.2 0.0
23/08:00am 5.2 2.4 3.1 86 0.9 NNW 7 13 4 7 1010.6 1011.3 0.0
23/07:30am 4.6 1.6 2.3 85 1.0 N 7 15 4 8 1010.5 1011.2 0.0
23/07:00am 4.2 1.4 2.2 87 0.8 NNW 6 11 3 6 1010.6 1011.3 0.0
23/06:30am 4.2 1.2 2.1 86 0.9 N 7 13 4 7 1010.5 1011.2 0.0
23/06:00am 4.2 1.4 1.9 85 1.0 N 6 9 3 5 1010.2 1010.9 0.0
23/05:30am 4.8 1.9 2.7 86 0.9 N 7 15 4 8 1009.9 1010.6 0.0
23/05:00am 4.8 1.6 3.3 90 0.6 N 9 15 5 8 1009.7 1010.4 0.0
23/04:30am 4.8 2.0 3.3 90 0.6 N 7 15 4 8 1009.8 1010.5 0.0
23/04:00am 5.0 2.3 3.5 90 0.7 N 7 15 4 8 1009.9 1010.6 0.0
23/03:30am 5.3 2.6 3.8 90 0.7 N 7 17 4 9 1010.2 1010.9 0.0
23/03:00am 5.3 2.3 4.0 91 0.6 N 9 22 5 12 1010.3 1011.0 0.0
23/02:30am 5.4 2.4 3.9 90 0.7 NNW 9 17 5 9 1010.6 1011.3 0.0
23/02:00am 5.3 2.6 3.8 90 0.7 N 7 13 4 7 1010.7 1011.5 0.0
23/01:30am 5.3 2.5 3.3 87 0.9 NNW 7 19 4 10 1010.6 1011.3 0.0
23/01:00am 5.5 2.3 3.3 86 1.0 NNW 9 17 5 9 1010.8 1011.6 0.0
23/12:30am 5.9 2.0 3.6 85 1.0 NNW 13 24 7 13 1011.1 1011.8 0.0
23/12:00am 6.1 1.1 3.4 83 1.2 NW 19 30 10 16 1010.8 1011.6 0.0
 
Date/Time
EST
Temp
°C
App
Temp
°C
Dew
Point
°C
Rel
Hum
%
Delta-T
°C
Wind Press
QNH
hPa
Press
MSL
hPa
Rain since
9am
mm
Dir  Spd
km/h
Gust
km/h
Spd
kts
Gust
kts
22/11:30pm 6.3 0.7 3.3 81 1.3 NW 22 32 12 17 1010.4 1011.1 0.0
22/11:00pm 6.0 2.1 3.2 82 1.2 NW 13 24 7 13 1010.6 1011.3 0.0
22/10:30pm 6.0 3.1 2.8 80 1.4 NW 7 13 4 7 1011.4 1012.1 0.0
22/10:00pm 6.3 2.3 3.1 80 1.4 NW 13 20 7 11 1011.0 1011.7 0.0
22/09:30pm 6.3 2.3 3.1 80 1.4 NW 13 24 7 13 1010.4 1011.1 0.0
22/09:00pm 6.2 1.9 3.4 82 1.2 NW 15 22 8 12 1010.0 1010.7 0.0
22/08:30pm 6.3 3.1 2.9 79 1.5 N 9 19 5 10 1010.2 1010.9 0.0
22/08:00pm 7.0 2.8 1.7 69 2.2 NW 13 26 7 14 1009.9 1010.6 0.0
22/07:30pm 7.0 2.7 1.3 67 2.4 NW 13 22 7 12 1009.4 1010.0 0.0
22/07:00pm 6.7 3.7 0.8 66 2.4 NNW 6 13 3 7 1008.5 1009.2 0.0
22/06:30pm 7.5 4.3 0.5 61 2.9 NNW 7 17 4 9 1007.9 1008.5 0.0
22/06:00pm 8.2 1.4 0.7 59 3.2 WNW 26 43 14 23 1006.9 1007.5 0.0
22/05:30pm 8.1 2.1 1.0 61 3.0 NW 22 39 12 21 1006.6 1007.2 0.0
22/05:00pm 8.2 2.8 1.4 62 2.9 NW 19 30 10 16 1006.3 1006.9 0.0
22/04:30pm 9.0 2.8 1.9 61 3.1 NW 24 35 13 19 1005.8 1006.5 0.0
22/04:00pm 9.2 2.3 2.5 63 3.0 NW 28 41 15 22 1005.3 1005.9 0.0
22/03:45pm 9.4 1.2 2.5 62 3.0 WNW 35 54 19 29 1004.8 1005.4 0.0
22/03:30pm 9.4 2.6 3.2 65 2.8 NW 28 43 15 23 1004.6 1005.2 0.0
22/03:00pm 9.9 5.7 3.9 66 2.8 NNW 15 26 8 14 1005.2 1005.8 0.0
22/02:30pm 11.0 7.2 3.8 61 3.3 NNW 13 28 7 15 1004.2 1004.8 0.0
22/02:00pm 11.3 7.5 3.8 60 3.5 NW 13 24 7 13 1004.2 1004.8 0.0
22/01:30pm 10.7 5.1 3.5 61 3.3 NW 22 44 12 24 1004.1 1004.7 0.0
22/01:00pm 11.0 6.6 2.8 57 3.7 NW 15 28 8 15 1003.9 1004.5 0.0
22/12:30pm 11.8 7.6 3.8 58 3.7 NW 15 26 8 14 1004.1 1004.7 0.0
22/12:00pm 11.2 7.5 4.4 63 3.2 NNW 13 28 7 15 1003.9 1004.5 0.0
22/11:30am 11.1 5.8 4.8 65 3.0 NW 22 33 12 18 1004.1 1004.7 0.0
22/11:00am 11.2 6.5 5.3 67 2.8 NW 19 30 10 16 1003.8 1004.4 0.0
22/10:30am 10.4 5.1 4.8 68 2.6 NW 22 35 12 19 1003.5 1004.1 0.0
22/10:00am 10.4 5.6 5.6 72 2.3 NW 20 30 11 16 1003.4 1004.0 0.0
22/09:30am 9.5 3.8 5.1 74 2.1 NW 24 39 13 21 1002.8 1003.4 0.0
22/09:00am 9.3 4.9 4.7 73 2.1 NW 17 28 9 15 1002.8 1003.4 0.6
22/08:30am 8.6 5.2 3.8 72 2.2 NNW 11 19 6 10 1002.5 1003.1 0.6
22/08:00am 8.9 4.2 2.9 66 2.7 NW 17 30 9 16 1002.1 1002.7 0.6
22/07:30am 8.3 1.1 3.0 69 2.3 WNW 30 44 16 24 1001.0 1001.6 0.6
22/07:00am 8.4 2.8 3.5 71 2.2 WNW 22 32 12 17 1000.6 1001.2 0.6
22/06:30am 8.8 6.3 4.0 72 2.2 NNW 6 13 3 7 1000.7 1001.3 0.6

Other Formats:

Comma delimited format used in spreadsheet applications
http://www.bom.gov.au/fwo/IDN60801/IDN60801.94927.axf

JavaScript Object Notation format (JSON) in row-major order
http://www.bom.gov.au/fwo/IDN60801/IDN60801.94927.json